IBE494 LEXJ-LEMD
Flight info
| Callsign | IBE494 |
|---|---|
| Flight time | 0h 43m |
| Altitude | 31000 |
| Route | TITAN N864 NONTU |
| Aircraft | A319/M-SDE3FGHIRWY/LB1 |
Departure
| Time | 2026-05-08 16:29 |
|---|---|
| Airport | Seve Ballesteros-Santander Airport (LEXJ) |
Arrival
| Time | 2026-05-08 17:12 |
|---|---|
| Airport | Adolfo Suárez Madrid–Barajas Airport (LEMD) |
| Time | Latitude | Longitude | Altitude | Speed | Heading |
|---|---|---|---|---|---|
| 2026-05-08 16:07 | 43.42513 | -3.82251 | 19 ft | 0 kts | 111° |
| 2026-05-08 16:12 | 43.42513 | -3.82252 | 19 ft | 0 kts | 111° |
| 2026-05-08 16:17 | 43.42517 | -3.82267 | 21 ft | 4 kts | 106° |
| 2026-05-08 16:17 | 43.42520 | -3.82314 | 22 ft | 4 kts | 71° |
| 2026-05-08 16:17 | 43.42508 | -3.82337 | 20 ft | 2 kts | 20° |
| 2026-05-08 16:18 | 43.42503 | -3.82340 | 21 ft | 0 kts | 20° |
| 2026-05-08 16:20 | 43.42508 | -3.82337 | 20 ft | 2 kts | 21° |
| 2026-05-08 16:20 | 43.42538 | -3.82322 | 20 ft | 6 kts | 20° |
| 2026-05-08 16:20 | 43.42580 | -3.82301 | 19 ft | 7 kts | 20° |
| 2026-05-08 16:21 | 43.42606 | -3.82257 | 19 ft | 6 kts | 99° |
| 2026-05-08 16:21 | 43.42584 | -3.82175 | 20 ft | 12 kts | 110° |
| 2026-05-08 16:21 | 43.42555 | -3.82068 | 20 ft | 12 kts | 110° |
| 2026-05-08 16:21 | 43.42525 | -3.81953 | 19 ft | 13 kts | 110° |
| 2026-05-08 16:22 | 43.42493 | -3.81838 | 19 ft | 13 kts | 110° |
| 2026-05-08 16:22 | 43.42462 | -3.81718 | 19 ft | 14 kts | 110° |
| 2026-05-08 16:22 | 43.42429 | -3.81595 | 21 ft | 14 kts | 110° |
| 2026-05-08 16:22 | 43.42395 | -3.81468 | 20 ft | 14 kts | 110° |
| 2026-05-08 16:23 | 43.42373 | -3.81376 | 22 ft | 8 kts | 93° |
| 2026-05-08 16:23 | 43.42411 | -3.81333 | 19 ft | 7 kts | 19° |
| 2026-05-08 16:23 | 43.42426 | -3.81326 | 20 ft | 0 kts | 19° |
| 2026-05-08 16:25 | 43.42441 | -3.81318 | 22 ft | 4 kts | 19° |
| 2026-05-08 16:25 | 43.42477 | -3.81301 | 24 ft | 7 kts | 19° |
| 2026-05-08 16:25 | 43.42500 | -3.81234 | 22 ft | 11 kts | 99° |
| 2026-05-08 16:26 | 43.42468 | -3.81109 | 22 ft | 16 kts | 110° |
| 2026-05-08 16:26 | 43.42429 | -3.80964 | 23 ft | 16 kts | 110° |
| 2026-05-08 16:26 | 43.42389 | -3.80813 | 20 ft | 17 kts | 110° |
| 2026-05-08 16:26 | 43.42325 | -3.80698 | 19 ft | 13 kts | 139° |
| 2026-05-08 16:27 | 43.42346 | -3.80645 | 18 ft | 10 kts | 312° |
| 2026-05-08 16:27 | 43.42350 | -3.80663 | 18 ft | 0 kts | 287° |
| 2026-05-08 16:28 | 43.42384 | -3.80789 | 21 ft | 48 kts | 290° |
| 2026-05-08 16:28 | 43.42587 | -3.81553 | 23 ft | 119 kts | 290° |
| 2026-05-08 16:28 | 43.42927 | -3.82830 | 242 ft | 149 kts | 291° |
| 2026-05-08 16:29 | 43.43276 | -3.84176 | 846 ft | 150 kts | 291° |
| 2026-05-08 16:29 | 43.43653 | -3.85545 | 1368 ft | 160 kts | 292° |
| 2026-05-08 16:29 | 43.44076 | -3.87055 | 1809 ft | 178 kts | 291° |
| 2026-05-08 16:29 | 43.44535 | -3.88740 | 2238 ft | 198 kts | 291° |
| 2026-05-08 16:30 | 43.45033 | -3.90612 | 2640 ft | 221 kts | 291° |
| 2026-05-08 16:30 | 43.45603 | -3.92711 | 3085 ft | 246 kts | 291° |
| 2026-05-08 16:30 | 43.46236 | -3.95004 | 3772 ft | 263 kts | 289° |
| 2026-05-08 16:30 | 43.46893 | -3.97387 | 4705 ft | 269 kts | 288° |
| 2026-05-08 16:31 | 43.47562 | -3.99824 | 5660 ft | 274 kts | 288° |
| 2026-05-08 16:31 | 43.48235 | -4.02285 | 6619 ft | 276 kts | 287° |
| 2026-05-08 16:31 | 43.48644 | -4.04851 | 7508 ft | 275 kts | 266° |
| 2026-05-08 16:31 | 43.48249 | -4.07384 | 8396 ft | 271 kts | 241° |
| 2026-05-08 16:32 | 43.47122 | -4.09424 | 9301 ft | 269 kts | 217° |
| 2026-05-08 16:32 | 43.45487 | -4.10629 | 10180 ft | 269 kts | 195° |
| 2026-05-08 16:32 | 43.43569 | -4.10856 | 10602 ft | 290 kts | 175° |
| 2026-05-08 16:32 | 43.41500 | -4.10367 | 10860 ft | 315 kts | 167° |
| 2026-05-08 16:33 | 43.39376 | -4.09386 | 11356 ft | 328 kts | 158° |
| 2026-05-08 16:33 | 43.37313 | -4.07951 | 12078 ft | 335 kts | 150° |
| 2026-05-08 16:33 | 43.35397 | -4.06086 | 12866 ft | 341 kts | 142° |
| 2026-05-08 16:33 | 43.33678 | -4.03796 | 13639 ft | 347 kts | 133° |
| 2026-05-08 16:34 | 43.32224 | -4.01103 | 14314 ft | 353 kts | 125° |
| 2026-05-08 16:34 | 43.30769 | -3.98441 | 14937 ft | 354 kts | 139° |
| 2026-05-08 16:34 | 43.28711 | -3.96628 | 15579 ft | 354 kts | 161° |
| 2026-05-08 16:34 | 43.26301 | -3.96064 | 16214 ft | 355 kts | 180° |
| 2026-05-08 16:35 | 43.23824 | -3.96102 | 16927 ft | 356 kts | 181° |
| 2026-05-08 16:35 | 43.21338 | -3.96265 | 17595 ft | 359 kts | 184° |
| 2026-05-08 16:35 | 43.18834 | -3.96560 | 18266 ft | 363 kts | 185° |
| 2026-05-08 16:35 | 43.16314 | -3.96918 | 18866 ft | 366 kts | 186° |
| 2026-05-08 16:36 | 43.13775 | -3.97289 | 19493 ft | 368 kts | 186° |
| 2026-05-08 16:36 | 43.11220 | -3.97648 | 20079 ft | 371 kts | 186° |
| 2026-05-08 16:36 | 43.08639 | -3.97987 | 20651 ft | 374 kts | 185° |
| 2026-05-08 16:36 | 43.06031 | -3.98311 | 21196 ft | 378 kts | 185° |
| 2026-05-08 16:37 | 43.03403 | -3.98627 | 21744 ft | 381 kts | 185° |
| 2026-05-08 16:37 | 43.00750 | -3.98944 | 22265 ft | 384 kts | 185° |
| 2026-05-08 16:37 | 42.98072 | -3.99264 | 22774 ft | 388 kts | 185° |
| 2026-05-08 16:37 | 42.95404 | -3.99583 | 23265 ft | 391 kts | 185° |
| 2026-05-08 16:38 | 42.92647 | -3.99911 | 23711 ft | 395 kts | 186° |
| 2026-05-08 16:38 | 42.90829 | -4.00125 | 23986 ft | 396 kts | 186° |
| 2026-05-08 16:38 | 42.87172 | -4.00554 | 24542 ft | 399 kts | 186° |
| 2026-05-08 16:38 | 42.84397 | -4.00886 | 24958 ft | 402 kts | 187° |
| 2026-05-08 16:39 | 42.81604 | -4.01222 | 25370 ft | 404 kts | 187° |
| 2026-05-08 16:39 | 42.78797 | -4.01559 | 25784 ft | 406 kts | 187° |
| 2026-05-08 16:39 | 42.75972 | -4.01898 | 26195 ft | 408 kts | 187° |
| 2026-05-08 16:39 | 42.73129 | -4.02236 | 26607 ft | 411 kts | 187° |
| 2026-05-08 16:40 | 42.71238 | -4.02461 | 26866 ft | 412 kts | 187° |
| 2026-05-08 16:40 | 42.68376 | -4.02800 | 27260 ft | 414 kts | 188° |
| 2026-05-08 16:40 | 42.65497 | -4.03140 | 27641 ft | 417 kts | 188° |
| 2026-05-08 16:40 | 42.62598 | -4.03482 | 28018 ft | 419 kts | 188° |
| 2026-05-08 16:41 | 42.59685 | -4.03828 | 28399 ft | 421 kts | 188° |
| 2026-05-08 16:41 | 42.56761 | -4.04178 | 28758 ft | 423 kts | 188° |
| 2026-05-08 16:41 | 42.53824 | -4.04527 | 29092 ft | 425 kts | 189° |
| 2026-05-08 16:42 | 42.47914 | -4.05222 | 29856 ft | 427 kts | 190° |
| 2026-05-08 16:42 | 42.44950 | -4.05569 | 30156 ft | 429 kts | 190° |
| 2026-05-08 16:42 | 42.41967 | -4.05921 | 30417 ft | 431 kts | 190° |
| 2026-05-08 16:42 | 42.38981 | -4.06272 | 30768 ft | 430 kts | 189° |
| 2026-05-08 16:43 | 42.35999 | -4.06625 | 30909 ft | 429 kts | 189° |
| 2026-05-08 16:43 | 42.30142 | -4.07312 | 30937 ft | 418 kts | 190° |
| 2026-05-08 16:44 | 42.24352 | -4.07992 | 30936 ft | 417 kts | 190° |
| 2026-05-08 16:44 | 42.18577 | -4.08672 | 30934 ft | 417 kts | 190° |
| 2026-05-08 16:45 | 42.12834 | -4.09343 | 30934 ft | 417 kts | 190° |
| 2026-05-08 16:45 | 42.07069 | -4.10010 | 30930 ft | 415 kts | 191° |
| 2026-05-08 16:46 | 42.01318 | -4.10686 | 30937 ft | 414 kts | 191° |
| 2026-05-08 16:46 | 41.95579 | -4.11379 | 30932 ft | 413 kts | 191° |
| 2026-05-08 16:47 | 41.89854 | -4.12085 | 30918 ft | 413 kts | 191° |
| 2026-05-08 16:47 | 41.84145 | -4.12783 | 30933 ft | 411 kts | 191° |
| 2026-05-08 16:48 | 41.78451 | -4.13470 | 30926 ft | 411 kts | 191° |
| 2026-05-08 16:48 | 41.72765 | -4.14152 | 30926 ft | 410 kts | 191° |
| 2026-05-08 16:49 | 41.67087 | -4.14834 | 30906 ft | 409 kts | 191° |
| 2026-05-08 16:49 | 41.61419 | -4.15515 | 30906 ft | 409 kts | 191° |
| 2026-05-08 16:50 | 41.55792 | -4.16185 | 30911 ft | 408 kts | 191° |
| 2026-05-08 16:50 | 41.50139 | -4.16864 | 30904 ft | 408 kts | 191° |
| 2026-05-08 16:51 | 41.44479 | -4.17522 | 30884 ft | 408 kts | 191° |
| 2026-05-08 16:51 | 41.38828 | -4.18141 | 30888 ft | 407 kts | 191° |
| 2026-05-08 16:52 | 41.33183 | -4.18764 | 30888 ft | 407 kts | 191° |
| 2026-05-08 16:52 | 41.27542 | -4.19397 | 30888 ft | 407 kts | 191° |
| 2026-05-08 16:53 | 41.19052 | -4.20069 | 30892 ft | 408 kts | 188° |
| 2026-05-08 16:53 | 41.13425 | -4.20338 | 30900 ft | 407 kts | 188° |
| 2026-05-08 16:54 | 41.07735 | -4.20650 | 30701 ft | 406 kts | 189° |
| 2026-05-08 16:54 | 41.04916 | -4.20818 | 29924 ft | 405 kts | 189° |
| 2026-05-08 16:54 | 41.02105 | -4.20991 | 28999 ft | 405 kts | 189° |
| 2026-05-08 16:55 | 40.99286 | -4.21167 | 28059 ft | 406 kts | 189° |
| 2026-05-08 16:55 | 40.96481 | -4.21340 | 27363 ft | 401 kts | 189° |
| 2026-05-08 16:55 | 40.93705 | -4.21508 | 26687 ft | 397 kts | 188° |
| 2026-05-08 16:55 | 40.90959 | -4.21672 | 26029 ft | 393 kts | 188° |
| 2026-05-08 16:56 | 40.88241 | -4.21835 | 25388 ft | 389 kts | 188° |
| 2026-05-08 16:56 | 40.85552 | -4.21997 | 24759 ft | 385 kts | 188° |
| 2026-05-08 16:56 | 40.82883 | -4.22162 | 24124 ft | 382 kts | 188° |
| 2026-05-08 16:56 | 40.80243 | -4.22324 | 23720 ft | 377 kts | 188° |
| 2026-05-08 16:57 | 40.77634 | -4.22480 | 23077 ft | 374 kts | 188° |
| 2026-05-08 16:57 | 40.75041 | -4.22635 | 22499 ft | 371 kts | 188° |
| 2026-05-08 16:57 | 40.72481 | -4.22788 | 21958 ft | 367 kts | 188° |
| 2026-05-08 16:57 | 40.69971 | -4.22939 | 21443 ft | 364 kts | 188° |
| 2026-05-08 16:58 | 40.67454 | -4.23091 | 20940 ft | 361 kts | 188° |
| 2026-05-08 16:58 | 40.64946 | -4.23153 | 20310 ft | 366 kts | 180° |
| 2026-05-08 16:58 | 40.62482 | -4.22108 | 19728 ft | 383 kts | 155° |
| 2026-05-08 16:58 | 40.60481 | -4.19717 | 19224 ft | 397 kts | 134° |
| 2026-05-08 16:59 | 40.58834 | -4.16781 | 18694 ft | 398 kts | 131° |
| 2026-05-08 16:59 | 40.57215 | -4.13840 | 18209 ft | 395 kts | 131° |
| 2026-05-08 16:59 | 40.55588 | -4.10944 | 17670 ft | 392 kts | 132° |
| 2026-05-08 16:59 | 40.53949 | -4.08102 | 17145 ft | 388 kts | 133° |
| 2026-05-08 17:00 | 40.52305 | -4.05308 | 16619 ft | 385 kts | 133° |
| 2026-05-08 17:00 | 40.50660 | -4.02546 | 16088 ft | 382 kts | 133° |
| 2026-05-08 17:00 | 40.49026 | -3.99808 | 15566 ft | 380 kts | 133° |
| 2026-05-08 17:00 | 40.47399 | -3.97086 | 15073 ft | 377 kts | 133° |
| 2026-05-08 17:01 | 40.45787 | -3.94381 | 14558 ft | 375 kts | 132° |
| 2026-05-08 17:01 | 40.44189 | -3.91695 | 14061 ft | 372 kts | 132° |
| 2026-05-08 17:01 | 40.42625 | -3.89063 | 13565 ft | 370 kts | 131° |
| 2026-05-08 17:01 | 40.41051 | -3.86412 | 13005 ft | 366 kts | 131° |
| 2026-05-08 17:02 | 40.39493 | -3.83791 | 12504 ft | 362 kts | 132° |
| 2026-05-08 17:02 | 40.37954 | -3.81203 | 12003 ft | 357 kts | 132° |
| 2026-05-08 17:02 | 40.36437 | -3.78656 | 11577 ft | 355 kts | 132° |
| 2026-05-08 17:02 | 40.34873 | -3.76047 | 11107 ft | 368 kts | 131° |
| 2026-05-08 17:03 | 40.33296 | -3.73415 | 10668 ft | 360 kts | 131° |
| 2026-05-08 17:03 | 40.31788 | -3.70886 | 10357 ft | 345 kts | 131° |
| 2026-05-08 17:03 | 40.30352 | -3.68473 | 9994 ft | 326 kts | 131° |
| 2026-05-08 17:03 | 40.28989 | -3.66194 | 9628 ft | 310 kts | 132° |
| 2026-05-08 17:04 | 40.27694 | -3.64021 | 9219 ft | 297 kts | 132° |
| 2026-05-08 17:04 | 40.26449 | -3.61924 | 8751 ft | 287 kts | 132° |
| 2026-05-08 17:04 | 40.25234 | -3.59883 | 8297 ft | 283 kts | 132° |
| 2026-05-08 17:04 | 40.24018 | -3.57850 | 7835 ft | 284 kts | 132° |
| 2026-05-08 17:05 | 40.22797 | -3.55813 | 7382 ft | 284 kts | 132° |
| 2026-05-08 17:05 | 40.21593 | -3.53806 | 6976 ft | 283 kts | 132° |
| 2026-05-08 17:05 | 40.20387 | -3.51799 | 6650 ft | 278 kts | 132° |
| 2026-05-08 17:05 | 40.19208 | -3.49822 | 6360 ft | 274 kts | 130° |
| 2026-05-08 17:06 | 40.18430 | -3.47554 | 6049 ft | 278 kts | 102° |
| 2026-05-08 17:06 | 40.18574 | -3.45040 | 5743 ft | 282 kts | 72° |
| 2026-05-08 17:06 | 40.19632 | -3.42901 | 5435 ft | 282 kts | 45° |
| 2026-05-08 17:06 | 40.21142 | -3.41249 | 5137 ft | 285 kts | 33° |
| 2026-05-08 17:07 | 40.22877 | -3.39981 | 4847 ft | 284 kts | 28° |
| 2026-05-08 17:07 | 40.24651 | -3.38907 | 4538 ft | 281 kts | 17° |
| 2026-05-08 17:07 | 40.26573 | -3.38541 | 4237 ft | 279 kts | 358° |
| 2026-05-08 17:07 | 40.28487 | -3.38825 | 4010 ft | 273 kts | 350° |
| 2026-05-08 17:08 | 40.30262 | -3.39393 | 3992 ft | 253 kts | 334° |
| 2026-05-08 17:08 | 40.31698 | -3.40604 | 3997 ft | 244 kts | 320° |
| 2026-05-08 17:08 | 40.33040 | -3.41962 | 4004 ft | 243 kts | 321° |
| 2026-05-08 17:08 | 40.34377 | -3.43315 | 4003 ft | 243 kts | 319° |
| 2026-05-08 17:09 | 40.35700 | -3.44651 | 4008 ft | 233 kts | 321° |
| 2026-05-08 17:09 | 40.36941 | -3.45903 | 4001 ft | 217 kts | 321° |
| 2026-05-08 17:09 | 40.38095 | -3.47068 | 3990 ft | 205 kts | 320° |
| 2026-05-08 17:09 | 40.39218 | -3.48205 | 3728 ft | 202 kts | 321° |
| 2026-05-08 17:10 | 40.40317 | -3.49317 | 3471 ft | 197 kts | 321° |
| 2026-05-08 17:10 | 40.41377 | -3.50391 | 3218 ft | 186 kts | 321° |
| 2026-05-08 17:10 | 40.42360 | -3.51385 | 2958 ft | 171 kts | 320° |
| 2026-05-08 17:10 | 40.43232 | -3.52268 | 2743 ft | 149 kts | 321° |
| 2026-05-08 17:11 | 40.44029 | -3.53077 | 2541 ft | 143 kts | 322° |
| 2026-05-08 17:11 | 40.44804 | -3.53863 | 2365 ft | 140 kts | 323° |
| 2026-05-08 17:11 | 40.45571 | -3.54638 | 2160 ft | 139 kts | 322° |
| 2026-05-08 17:11 | 40.46335 | -3.55415 | 1999 ft | 138 kts | 324° |
| 2026-05-08 17:12 | 40.47042 | -3.56129 | 1979 ft | 111 kts | 322° |
| 2026-05-08 17:12 | 40.47516 | -3.56611 | 1994 ft | 61 kts | 322° |
| 2026-05-08 17:12 | 40.47733 | -3.56873 | 1996 ft | 35 kts | 303° |
| 2026-05-08 17:12 | 40.47804 | -3.57057 | 1998 ft | 15 kts | 287° |
| 2026-05-08 17:13 | 40.47740 | -3.57109 | 1998 ft | 14 kts | 149° |
| 2026-05-08 17:13 | 40.47650 | -3.57059 | 1997 ft | 15 kts | 207° |
| 2026-05-08 17:13 | 40.47670 | -3.57157 | 1998 ft | 13 kts | 321° |
| 2026-05-08 17:13 | 40.47746 | -3.57234 | 2001 ft | 15 kts | 323° |
| 2026-05-08 17:14 | 40.47832 | -3.57321 | 2002 ft | 15 kts | 322° |
| 2026-05-08 17:14 | 40.47921 | -3.57412 | 2004 ft | 18 kts | 322° |
| 2026-05-08 17:14 | 40.48025 | -3.57518 | 2001 ft | 20 kts | 322° |
| 2026-05-08 17:14 | 40.48141 | -3.57636 | 1998 ft | 22 kts | 322° |
| 2026-05-08 17:15 | 40.48268 | -3.57764 | 1993 ft | 24 kts | 322° |
| 2026-05-08 17:15 | 40.48392 | -3.57882 | 1991 ft | 19 kts | 327° |
| 2026-05-08 17:15 | 40.48498 | -3.57970 | 1998 ft | 16 kts | 328° |
| 2026-05-08 17:15 | 40.48582 | -3.58051 | 2003 ft | 17 kts | 306° |
| 2026-05-08 17:16 | 40.48597 | -3.58210 | 2009 ft | 17 kts | 270° |
| 2026-05-08 17:16 | 40.48597 | -3.58354 | 2012 ft | 15 kts | 269° |
| 2026-05-08 17:16 | 40.48596 | -3.58503 | 2018 ft | 18 kts | 270° |
| 2026-05-08 17:16 | 40.48595 | -3.58659 | 2022 ft | 17 kts | 269° |
| 2026-05-08 17:17 | 40.48617 | -3.58802 | 2027 ft | 16 kts | 329° |
| 2026-05-08 17:17 | 40.48729 | -3.58809 | 2026 ft | 16 kts | 360° |
| 2026-05-08 17:17 | 40.48845 | -3.58811 | 2022 ft | 17 kts | 358° |
| 2026-05-08 17:17 | 40.48878 | -3.58922 | 2022 ft | 11 kts | 269° |
| 2026-05-08 17:18 | 40.48878 | -3.58969 | 2022 ft | 0 kts | 269° |